sensor_id;sensor_type;location;lat;lon;timestamp;temperature;humidity
69261;DHT22;56378;52.404;20.816;2022-12-20T00:00:49;-2.70;97.10
69261;DHT22;56378;52.404;20.816;2022-12-20T00:03:15;-2.60;97.40
69261;DHT22;56378;52.404;20.816;2022-12-20T00:05:42;-2.60;97.70
69261;DHT22;56378;52.404;20.816;2022-12-20T00:08:09;-2.50;98.00
69261;DHT22;56378;52.404;20.816;2022-12-20T00:10:39;-2.50;98.50
69261;DHT22;56378;52.404;20.816;2022-12-20T00:13:06;-2.50;99.00
69261;DHT22;56378;52.404;20.816;2022-12-20T00:27:43;-2.20;99.90
69261;DHT22;56378;52.404;20.816;2022-12-20T00:30:09;-2.10;99.90
69261;DHT22;56378;52.404;20.816;2022-12-20T00:32:35;-2.10;99.90
69261;DHT22;56378;52.404;20.816;2022-12-20T00:35:01;-2.10;99.90
69261;DHT22;56378;52.404;20.816;2022-12-20T00:37:27;-2.00;99.90
69261;DHT22;56378;52.404;20.816;2022-12-20T00:39:52;-2.00;99.90
69261;DHT22;56378;52.404;20.816;2022-12-20T00:42:18;-1.90;99.90
69261;DHT22;56378;52.404;20.816;2022-12-20T00:44:43;-2.00;99.90
69261;DHT22;56378;52.404;20.816;2022-12-20T00:47:09;-1.90;99.90
69261;DHT22;56378;52.404;20.816;2022-12-20T00:49:35;-1.90;99.90
69261;DHT22;56378;52.404;20.816;2022-12-20T00:52:00;-1.90;99.90
69261;DHT22;56378;52.404;20.816;2022-12-20T00:54:26;-1.90;99.90
69261;DHT22;56378;52.404;20.816;2022-12-20T00:56:52;-1.80;99.90
69261;DHT22;56378;52.404;20.816;2022-12-20T00:59:17;-1.90;99.90
69261;DHT22;56378;52.404;20.816;2022-12-20T01:01:43;-1.90;99.90
69261;DHT22;56378;52.404;20.816;2022-12-20T01:04:09;-1.80;99.90
69261;DHT22;56378;52.404;20.816;2022-12-20T01:06:35;-1.80;99.90
69261;DHT22;56378;52.404;20.816;2022-12-20T01:09:01;-1.70;99.90
69261;DHT22;56378;52.404;20.816;2022-12-20T01:11:30;-1.70;99.90
69261;DHT22;56378;52.404;20.816;2022-12-20T01:13:59;-1.70;99.90
69261;DHT22;56378;52.404;20.816;2022-12-20T01:16:33;-1.70;99.90
69261;DHT22;56378;52.404;20.816;2022-12-20T01:18:59;-1.60;99.90
69261;DHT22;56378;52.404;20.816;2022-12-20T01:21:26;-1.60;99.90
69261;DHT22;56378;52.404;20.816;2022-12-20T01:23:53;-1.60;99.90
69261;DHT22;56378;52.404;20.816;2022-12-20T01:26:21;-1.50;99.90
69261;DHT22;56378;52.404;20.816;2022-12-20T01:28:50;-1.50;99.90
69261;DHT22;56378;52.404;20.816;2022-12-20T01:31:17;-1.50;99.90
69261;DHT22;56378;52.404;20.816;2022-12-20T01:33:44;-1.40;99.90
69261;DHT22;56378;52.404;20.816;2022-12-20T01:36:13;-1.40;99.90
69261;DHT22;56378;52.404;20.816;2022-12-20T01:38:39;-1.40;99.90
69261;DHT22;56378;52.404;20.816;2022-12-20T01:41:04;-1.30;99.90
69261;DHT22;56378;52.404;20.816;2022-12-20T01:43:47;-1.30;99.90
69261;DHT22;56378;52.404;20.816;2022-12-20T01:46:13;-1.20;99.90
69261;DHT22;56378;52.404;20.816;2022-12-20T01:48:40;-1.20;99.90
69261;DHT22;56378;52.404;20.816;2022-12-20T01:51:08;-1.20;99.90
69261;DHT22;56378;52.404;20.816;2022-12-20T01:53:34;-1.10;99.90
69261;DHT22;56378;52.404;20.816;2022-12-20T01:56:03;-1.10;99.90
69261;DHT22;56378;52.404;20.816;2022-12-20T01:58:30;-1.00;99.90
69261;DHT22;56378;52.404;20.816;2022-12-20T02:00:56;-1.00;99.90
69261;DHT22;56378;52.404;20.816;2022-12-20T02:03:22;-1.00;99.90
69261;DHT22;56378;52.404;20.816;2022-12-20T02:05:48;-1.00;99.90
69261;DHT22;56378;52.404;20.816;2022-12-20T02:08:16;-1.00;99.90
69261;DHT22;56378;52.404;20.816;2022-12-20T02:13:41;-1.00;99.90
69261;DHT22;56378;52.404;20.816;2022-12-20T02:16:15;-0.90;99.90
69261;DHT22;56378;52.404;20.816;2022-12-20T02:18:57;-0.90;99.90
69261;DHT22;56378;52.404;20.816;2022-12-20T02:21:35;-0.90;99.90
69261;DHT22;56378;52.404;20.816;2022-12-20T02:32:27;-0.80;99.90
69261;DHT22;56378;52.404;20.816;2022-12-20T02:34:55;-0.80;99.90
69261;DHT22;56378;52.404;20.816;2022-12-20T02:37:21;-0.80;99.90
69261;DHT22;56378;52.404;20.816;2022-12-20T02:39:47;-0.80;99.90
69261;DHT22;56378;52.404;20.816;2022-12-20T02:42:17;-0.80;99.90
69261;DHT22;56378;52.404;20.816;2022-12-20T02:44:49;-0.80;99.90
69261;DHT22;56378;52.404;20.816;2022-12-20T02:47:39;-0.80;99.90
69261;DHT22;56378;52.404;20.816;2022-12-20T02:50:08;-0.70;99.90
69261;DHT22;56378;52.404;20.816;2022-12-20T02:52:34;-0.70;99.90
69261;DHT22;56378;52.404;20.816;2022-12-20T02:55:01;-0.70;99.90
69261;DHT22;56378;52.404;20.816;2022-12-20T02:57:51;-0.70;99.90
69261;DHT22;56378;52.404;20.816;2022-12-20T03:00:20;-0.60;99.90
69261;DHT22;56378;52.404;20.816;2022-12-20T03:02:47;-0.70;99.90
69261;DHT22;56378;52.404;20.816;2022-12-20T03:05:35;-0.70;99.90
69261;DHT22;56378;52.404;20.816;2022-12-20T03:08:03;-0.60;99.90
69261;DHT22;56378;52.404;20.816;2022-12-20T03:10:29;-0.60;99.90
69261;DHT22;56378;52.404;20.816;2022-12-20T03:12:55;-0.60;99.90
69261;DHT22;56378;52.404;20.816;2022-12-20T03:15:20;-0.60;99.90
69261;DHT22;56378;52.404;20.816;2022-12-20T03:17:46;-0.60;99.90
69261;DHT22;56378;52.404;20.816;2022-12-20T03:20:12;-0.60;99.90
69261;DHT22;56378;52.404;20.816;2022-12-20T03:22:39;-0.60;99.90
69261;DHT22;56378;52.404;20.816;2022-12-20T03:25:05;-0.60;99.90
69261;DHT22;56378;52.404;20.816;2022-12-20T03:27:31;-0.60;99.90
69261;DHT22;56378;52.404;20.816;2022-12-20T03:29:57;-0.60;99.90
69261;DHT22;56378;52.404;20.816;2022-12-20T03:32:23;-0.60;99.90
69261;DHT22;56378;52.404;20.816;2022-12-20T03:34:48;-0.60;99.90
69261;DHT22;56378;52.404;20.816;2022-12-20T03:37:14;-0.50;99.90
69261;DHT22;56378;52.404;20.816;2022-12-20T03:39:40;-0.50;99.90
69261;DHT22;56378;52.404;20.816;2022-12-20T03:42:06;-0.50;99.90
69261;DHT22;56378;52.404;20.816;2022-12-20T03:44:31;-0.50;99.90
69261;DHT22;56378;52.404;20.816;2022-12-20T03:46:57;-0.50;99.90
69261;DHT22;56378;52.404;20.816;2022-12-20T03:49:23;-0.40;99.90
69261;DHT22;56378;52.404;20.816;2022-12-20T03:51:49;-0.40;99.90
69261;DHT22;56378;52.404;20.816;2022-12-20T03:54:14;-0.40;99.90
69261;DHT22;56378;52.404;20.816;2022-12-20T03:56:40;-0.40;99.90
69261;DHT22;56378;52.404;20.816;2022-12-20T03:59:05;-0.40;99.90
69261;DHT22;56378;52.404;20.816;2022-12-20T04:01:31;-0.30;99.90
69261;DHT22;56378;52.404;20.816;2022-12-20T04:04:01;-0.30;99.90
69261;DHT22;56378;52.404;20.816;2022-12-20T04:06:27;-0.40;99.90
69261;DHT22;56378;52.404;20.816;2022-12-20T04:08:53;-0.30;99.90
69261;DHT22;56378;52.404;20.816;2022-12-20T04:11:19;-0.40;99.90
69261;DHT22;56378;52.404;20.816;2022-12-20T04:13:47;-0.30;99.90
69261;DHT22;56378;52.404;20.816;2022-12-20T04:16:15;-0.30;99.90
69261;DHT22;56378;52.404;20.816;2022-12-20T04:18:41;-0.30;99.90
69261;DHT22;56378;52.404;20.816;2022-12-20T04:21:08;-0.30;99.90
69261;DHT22;56378;52.404;20.816;2022-12-20T04:23:38;-0.30;99.90
69261;DHT22;56378;52.404;20.816;2022-12-20T04:26:05;-0.30;99.90
69261;DHT22;56378;52.404;20.816;2022-12-20T04:28:31;-0.30;99.90
69261;DHT22;56378;52.404;20.816;2022-12-20T04:30:57;-0.20;99.90
69261;DHT22;56378;52.404;20.816;2022-12-20T04:33:23;-0.20;99.90
69261;DHT22;56378;52.404;20.816;2022-12-20T04:35:49;-0.30;99.90
69261;DHT22;56378;52.404;20.816;2022-12-20T04:38:17;-0.30;99.90
69261;DHT22;56378;52.404;20.816;2022-12-20T04:40:42;-0.30;99.90
69261;DHT22;56378;52.404;20.816;2022-12-20T04:43:08;-0.30;99.90
69261;DHT22;56378;52.404;20.816;2022-12-20T04:45:35;-0.30;99.90
69261;DHT22;56378;52.404;20.816;2022-12-20T04:48:00;-0.30;99.90
69261;DHT22;56378;52.404;20.816;2022-12-20T04:50:26;-0.30;99.90
69261;DHT22;56378;52.404;20.816;2022-12-20T04:52:52;-0.30;99.90
69261;DHT22;56378;52.404;20.816;2022-12-20T04:55:38;-0.30;99.90
69261;DHT22;56378;52.404;20.816;2022-12-20T04:58:05;-0.30;99.90
69261;DHT22;56378;52.404;20.816;2022-12-20T05:00:31;-0.30;99.90
69261;DHT22;56378;52.404;20.816;2022-12-20T05:02:57;-0.30;99.90
69261;DHT22;56378;52.404;20.816;2022-12-20T05:05:23;-0.30;99.90
69261;DHT22;56378;52.404;20.816;2022-12-20T05:07:50;-0.30;99.90
69261;DHT22;56378;52.404;20.816;2022-12-20T05:10:15;-0.30;99.90
69261;DHT22;56378;52.404;20.816;2022-12-20T05:12:41;-0.20;99.90
69261;DHT22;56378;52.404;20.816;2022-12-20T05:15:07;-0.20;99.90
69261;DHT22;56378;52.404;20.816;2022-12-20T05:17:34;-0.20;99.90
69261;DHT22;56378;52.404;20.816;2022-12-20T05:19:59;-0.20;99.90
69261;DHT22;56378;52.404;20.816;2022-12-20T05:22:25;-0.20;99.90
69261;DHT22;56378;52.404;20.816;2022-12-20T05:25:10;-0.10;99.90
69261;DHT22;56378;52.404;20.816;2022-12-20T05:27:55;-0.10;99.90
69261;DHT22;56378;52.404;20.816;2022-12-20T05:30:21;-0.10;99.90
69261;DHT22;56378;52.404;20.816;2022-12-20T05:32:47;-0.10;99.90
69261;DHT22;56378;52.404;20.816;2022-12-20T05:35:13;-0.10;99.90
69261;DHT22;56378;52.404;20.816;2022-12-20T05:37:38;-0.10;99.90
69261;DHT22;56378;52.404;20.816;2022-12-20T05:40:07;-0.10;99.90
69261;DHT22;56378;52.404;20.816;2022-12-20T05:42:33;-0.10;99.90
69261;DHT22;56378;52.404;20.816;2022-12-20T05:44:58;-0.10;99.90
69261;DHT22;56378;52.404;20.816;2022-12-20T05:47:26;-0.10;99.90
69261;DHT22;56378;52.404;20.816;2022-12-20T05:49:52;-0.10;99.90
69261;DHT22;56378;52.404;20.816;2022-12-20T05:52:17;-0.10;99.90
69261;DHT22;56378;52.404;20.816;2022-12-20T05:54:43;0.00;99.90
69261;DHT22;56378;52.404;20.816;2022-12-20T05:57:09;0.00;99.90
69261;DHT22;56378;52.404;20.816;2022-12-20T05:59:35;0.00;99.90
69261;DHT22;56378;52.404;20.816;2022-12-20T06:02:00;-0.10;99.90
69261;DHT22;56378;52.404;20.816;2022-12-20T06:04:26;-0.10;99.90
69261;DHT22;56378;52.404;20.816;2022-12-20T06:06:51;0.00;99.90
69261;DHT22;56378;52.404;20.816;2022-12-20T06:09:17;-0.10;99.90
69261;DHT22;56378;52.404;20.816;2022-12-20T06:11:43;-0.10;99.90
69261;DHT22;56378;52.404;20.816;2022-12-20T06:14:09;0.00;99.90
69261;DHT22;56378;52.404;20.816;2022-12-20T06:16:35;0.00;99.90
69261;DHT22;56378;52.404;20.816;2022-12-20T06:19:00;0.00;99.90
69261;DHT22;56378;52.404;20.816;2022-12-20T06:21:27;0.00;99.90
69261;DHT22;56378;52.404;20.816;2022-12-20T06:23:53;0.00;99.90
69261;DHT22;56378;52.404;20.816;2022-12-20T06:26:19;0.10;99.90
69261;DHT22;56378;52.404;20.816;2022-12-20T06:28:48;0.10;99.90
69261;DHT22;56378;52.404;20.816;2022-12-20T06:31:17;0.10;99.90
69261;DHT22;56378;52.404;20.816;2022-12-20T06:33:43;0.10;99.90
69261;DHT22;56378;52.404;20.816;2022-12-20T06:36:09;0.10;99.90
69261;DHT22;56378;52.404;20.816;2022-12-20T06:38:35;0.10;99.90
69261;DHT22;56378;52.404;20.816;2022-12-20T06:41:01;0.10;99.90
69261;DHT22;56378;52.404;20.816;2022-12-20T06:43:27;0.10;99.90
69261;DHT22;56378;52.404;20.816;2022-12-20T06:45:53;0.20;99.90
69261;DHT22;56378;52.404;20.816;2022-12-20T06:48:18;0.20;99.90
69261;DHT22;56378;52.404;20.816;2022-12-20T06:50:47;0.20;99.90
69261;DHT22;56378;52.404;20.816;2022-12-20T06:53:14;0.20;99.90
69261;DHT22;56378;52.404;20.816;2022-12-20T06:55:40;0.20;99.90
69261;DHT22;56378;52.404;20.816;2022-12-20T06:58:05;0.20;99.90
69261;DHT22;56378;52.404;20.816;2022-12-20T07:00:32;0.20;99.90
69261;DHT22;56378;52.404;20.816;2022-12-20T07:02:57;0.30;99.90
69261;DHT22;56378;52.404;20.816;2022-12-20T07:05:23;0.20;99.90
69261;DHT22;56378;52.404;20.816;2022-12-20T07:07:49;0.20;99.90
69261;DHT22;56378;52.404;20.816;2022-12-20T07:10:15;0.20;99.90
69261;DHT22;56378;52.404;20.816;2022-12-20T07:12:41;0.30;99.90
69261;DHT22;56378;52.404;20.816;2022-12-20T07:15:07;0.30;99.90
69261;DHT22;56378;52.404;20.816;2022-12-20T07:17:33;0.30;99.90
69261;DHT22;56378;52.404;20.816;2022-12-20T07:19:59;0.30;99.90
69261;DHT22;56378;52.404;20.816;2022-12-20T07:22:25;0.30;99.90
69261;DHT22;56378;52.404;20.816;2022-12-20T07:24:51;0.30;99.90
69261;DHT22;56378;52.404;20.816;2022-12-20T07:27:16;0.40;99.90
69261;DHT22;56378;52.404;20.816;2022-12-20T07:29:42;0.40;99.90
69261;DHT22;56378;52.404;20.816;2022-12-20T07:32:10;0.40;99.90
69261;DHT22;56378;52.404;20.816;2022-12-20T07:34:36;0.40;99.90
69261;DHT22;56378;52.404;20.816;2022-12-20T07:37:02;0.40;99.90
69261;DHT22;56378;52.404;20.816;2022-12-20T07:39:28;0.40;99.90
69261;DHT22;56378;52.404;20.816;2022-12-20T07:41:54;0.50;99.90
69261;DHT22;56378;52.404;20.816;2022-12-20T07:44:21;0.50;99.90
69261;DHT22;56378;52.404;20.816;2022-12-20T07:46:47;0.50;99.90
69261;DHT22;56378;52.404;20.816;2022-12-20T07:49:13;0.50;99.90
69261;DHT22;56378;52.404;20.816;2022-12-20T07:51:44;0.50;99.90
69261;DHT22;56378;52.404;20.816;2022-12-20T07:54:17;0.50;99.90
69261;DHT22;56378;52.404;20.816;2022-12-20T07:56:47;0.50;99.90
69261;DHT22;56378;52.404;20.816;2022-12-20T07:59:17;0.50;99.90
69261;DHT22;56378;52.404;20.816;2022-12-20T08:01:45;0.50;99.90
69261;DHT22;56378;52.404;20.816;2022-12-20T08:04:18;0.60;99.90
69261;DHT22;56378;52.404;20.816;2022-12-20T08:06:44;0.60;99.90
69261;DHT22;56378;52.404;20.816;2022-12-20T08:09:12;0.60;99.90
69261;DHT22;56378;52.404;20.816;2022-12-20T08:11:39;0.60;99.90
69261;DHT22;56378;52.404;20.816;2022-12-20T08:14:06;0.70;99.50
69261;DHT22;56378;52.404;20.816;2022-12-20T08:16:33;0.70;98.70
69261;DHT22;56378;52.404;20.816;2022-12-20T08:18:59;0.70;99.20
69261;DHT22;56378;52.404;20.816;2022-12-20T08:21:25;0.80;99.00
69261;DHT22;56378;52.404;20.816;2022-12-20T08:23:51;0.80;99.00
69261;DHT22;56378;52.404;20.816;2022-12-20T08:26:17;0.80;98.80
69261;DHT22;56378;52.404;20.816;2022-12-20T08:28:43;0.80;98.70
69261;DHT22;56378;52.404;20.816;2022-12-20T08:31:09;0.90;98.50
69261;DHT22;56378;52.404;20.816;2022-12-20T08:33:36;0.90;97.90
69261;DHT22;56378;52.404;20.816;2022-12-20T08:36:06;0.90;97.10
69261;DHT22;56378;52.404;20.816;2022-12-20T08:38:32;0.90;96.60
69261;DHT22;56378;52.404;20.816;2022-12-20T08:41:02;1.00;96.20
69261;DHT22;56378;52.404;20.816;2022-12-20T08:43:30;1.10;95.30
69261;DHT22;56378;52.404;20.816;2022-12-20T08:45:55;1.10;95.10
69261;DHT22;56378;52.404;20.816;2022-12-20T08:48:21;1.20;94.40
69261;DHT22;56378;52.404;20.816;2022-12-20T08:50:52;1.20;94.10
69261;DHT22;56378;52.404;20.816;2022-12-20T08:53:18;1.30;94.20
69261;DHT22;56378;52.404;20.816;2022-12-20T08:55:44;1.40;93.60
69261;DHT22;56378;52.404;20.816;2022-12-20T08:58:09;1.50;92.90
69261;DHT22;56378;52.404;20.816;2022-12-20T09:00:35;1.60;92.30
69261;DHT22;56378;52.404;20.816;2022-12-20T09:03:02;1.80;91.00
69261;DHT22;56378;52.404;20.816;2022-12-20T09:05:28;2.00;89.90
69261;DHT22;56378;52.404;20.816;2022-12-20T09:07:53;2.30;88.40
69261;DHT22;56378;52.404;20.816;2022-12-20T09:10:19;2.70;87.90
69261;DHT22;56378;52.404;20.816;2022-12-20T09:12:45;3.60;82.90
69261;DHT22;56378;52.404;20.816;2022-12-20T09:15:11;3.80;80.70
69261;DHT22;56378;52.404;20.816;2022-12-20T09:17:37;4.70;79.00
69261;DHT22;56378;52.404;20.816;2022-12-20T09:20:03;5.60;72.90
69261;DHT22;56378;52.404;20.816;2022-12-20T09:22:29;5.50;71.50
69261;DHT22;56378;52.404;20.816;2022-12-20T09:24:55;5.20;72.00
69261;DHT22;56378;52.404;20.816;2022-12-20T09:27:21;5.10;72.70
69261;DHT22;56378;52.404;20.816;2022-12-20T09:29:47;5.10;71.80
69261;DHT22;56378;52.404;20.816;2022-12-20T09:32:13;5.60;70.60
69261;DHT22;56378;52.404;20.816;2022-12-20T09:34:38;5.40;70.00
69261;DHT22;56378;52.404;20.816;2022-12-20T09:37:04;5.10;70.70
69261;DHT22;56378;52.404;20.816;2022-12-20T09:39:30;5.00;71.80
69261;DHT22;56378;52.404;20.816;2022-12-20T09:41:56;4.90;73.20
69261;DHT22;56378;52.404;20.816;2022-12-20T09:47:05;4.90;72.30
69261;DHT22;56378;52.404;20.816;2022-12-20T09:49:34;4.70;73.20
69261;DHT22;56378;52.404;20.816;2022-12-20T10:00:13;5.80;70.00
69261;DHT22;56378;52.404;20.816;2022-12-20T10:02:39;6.10;68.40
69261;DHT22;56378;52.404;20.816;2022-12-20T10:05:29;6.00;68.40
69261;DHT22;56378;52.404;20.816;2022-12-20T10:08:06;5.70;68.80
69261;DHT22;56378;52.404;20.816;2022-12-20T10:13:31;5.00;71.10
69261;DHT22;56378;52.404;20.816;2022-12-20T10:18:52;4.40;73.70
69261;DHT22;56378;52.404;20.816;2022-12-20T10:21:54;4.10;75.10
69261;DHT22;56378;52.404;20.816;2022-12-20T10:24:34;4.20;75.40
69261;DHT22;56378;52.404;20.816;2022-12-20T10:27:18;4.30;74.60
69261;DHT22;56378;52.404;20.816;2022-12-20T10:29:44;4.30;74.70
69261;DHT22;56378;52.404;20.816;2022-12-20T10:32:16;4.40;75.00
69261;DHT22;56378;52.404;20.816;2022-12-20T10:37:33;4.40;74.90
69261;DHT22;56378;52.404;20.816;2022-12-20T10:39:58;4.50;74.80
69261;DHT22;56378;52.404;20.816;2022-12-20T10:42:37;4.70;74.30
69261;DHT22;56378;52.404;20.816;2022-12-20T10:47:44;5.40;71.00
69261;DHT22;56378;52.404;20.816;2022-12-20T10:50:21;5.60;69.90
69261;DHT22;56378;52.404;20.816;2022-12-20T10:55:35;6.50;68.10
69261;DHT22;56378;52.404;20.816;2022-12-20T10:58:04;6.70;64.70
69261;DHT22;56378;52.404;20.816;2022-12-20T11:00:31;6.40;64.90
69261;DHT22;56378;52.404;20.816;2022-12-20T11:03:17;6.00;66.00
69261;DHT22;56378;52.404;20.816;2022-12-20T11:06:01;5.40;67.50
69261;DHT22;56378;52.404;20.816;2022-12-20T11:08:31;4.90;68.90
69261;DHT22;56378;52.404;20.816;2022-12-20T11:13:43;4.30;71.80
69261;DHT22;56378;52.404;20.816;2022-12-20T11:16:25;4.00;73.50
69261;DHT22;56378;52.404;20.816;2022-12-20T11:30:20;3.40;76.10
69261;DHT22;56378;52.404;20.816;2022-12-20T11:38:16;3.10;77.20
69261;DHT22;56378;52.404;20.816;2022-12-20T11:50:01;3.40;79.20
69261;DHT22;56378;52.404;20.816;2022-12-20T11:55:18;3.80;75.80
69261;DHT22;56378;52.404;20.816;2022-12-20T11:58:00;4.10;74.00
69261;DHT22;56378;52.404;20.816;2022-12-20T12:00:27;4.40;74.10
69261;DHT22;56378;52.404;20.816;2022-12-20T12:03:30;4.70;72.30
69261;DHT22;56378;52.404;20.816;2022-12-20T12:06:10;4.90;70.70
69261;DHT22;56378;52.404;20.816;2022-12-20T12:11:53;5.70;68.90
69261;DHT22;56378;52.404;20.816;2022-12-20T12:14:53;6.70;65.90
69261;DHT22;56378;52.404;20.816;2022-12-20T12:17:28;6.90;64.10
69261;DHT22;56378;52.404;20.816;2022-12-20T12:22:59;6.20;65.00
69261;DHT22;56378;52.404;20.816;2022-12-20T12:25:26;5.70;66.10
69261;DHT22;56378;52.404;20.816;2022-12-20T12:27:52;5.30;68.00
69261;DHT22;56378;52.404;20.816;2022-12-20T12:30:18;5.10;68.60
69261;DHT22;56378;52.404;20.816;2022-12-20T12:33:06;4.80;69.60
69261;DHT22;56378;52.404;20.816;2022-12-20T12:38:29;4.20;72.10
69261;DHT22;56378;52.404;20.816;2022-12-20T12:41:08;4.00;72.90
69261;DHT22;56378;52.404;20.816;2022-12-20T12:43:45;3.70;74.20
69261;DHT22;56378;52.404;20.816;2022-12-20T12:46:33;3.60;75.50
69261;DHT22;56378;52.404;20.816;2022-12-20T12:49:08;3.50;76.00
69261;DHT22;56378;52.404;20.816;2022-12-20T12:51:42;3.40;75.90
69261;DHT22;56378;52.404;20.816;2022-12-20T12:54:26;3.30;76.20
69261;DHT22;56378;52.404;20.816;2022-12-20T13:20:22;2.70;79.30
69261;DHT22;56378;52.404;20.816;2022-12-20T13:25:34;2.70;80.10
69261;DHT22;56378;52.404;20.816;2022-12-20T13:30:47;2.60;80.20
69261;DHT22;56378;52.404;20.816;2022-12-20T13:33:47;2.60;80.40
69261;DHT22;56378;52.404;20.816;2022-12-20T13:41:36;2.60;80.00
69261;DHT22;56378;52.404;20.816;2022-12-20T13:49:41;2.50;80.80
69261;DHT22;56378;52.404;20.816;2022-12-20T13:54:43;2.40;81.00
69261;DHT22;56378;52.404;20.816;2022-12-20T13:57:31;2.40;81.20
69261;DHT22;56378;52.404;20.816;2022-12-20T14:00:00;2.40;81.40
69261;DHT22;56378;52.404;20.816;2022-12-20T14:02:31;2.40;81.30
69261;DHT22;56378;52.404;20.816;2022-12-20T14:05:04;2.40;81.20
69261;DHT22;56378;52.404;20.816;2022-12-20T14:07:34;2.30;81.30
69261;DHT22;56378;52.404;20.816;2022-12-20T14:10:03;2.30;81.40
69261;DHT22;56378;52.404;20.816;2022-12-20T14:12:44;2.30;81.60
69261;DHT22;56378;52.404;20.816;2022-12-20T14:15:33;2.30;81.60
69261;DHT22;56378;52.404;20.816;2022-12-20T14:18:19;2.30;81.90
69261;DHT22;56378;52.404;20.816;2022-12-20T14:20:48;2.30;82.00
69261;DHT22;56378;52.404;20.816;2022-12-20T14:23:23;2.30;82.40
69261;DHT22;56378;52.404;20.816;2022-12-20T14:25:50;2.20;82.30
69261;DHT22;56378;52.404;20.816;2022-12-20T14:30:58;2.20;82.40
69261;DHT22;56378;52.404;20.816;2022-12-20T14:35:52;2.10;82.90
69261;DHT22;56378;52.404;20.816;2022-12-20T14:38:24;2.10;82.90
69261;DHT22;56378;52.404;20.816;2022-12-20T14:40:53;2.10;83.10
69261;DHT22;56378;52.404;20.816;2022-12-20T14:43:31;2.10;83.10
69261;DHT22;56378;52.404;20.816;2022-12-20T14:46:18;2.10;83.40
69261;DHT22;56378;52.404;20.816;2022-12-20T14:48:45;2.10;83.10
69261;DHT22;56378;52.404;20.816;2022-12-20T14:51:13;2.10;83.20
69261;DHT22;56378;52.404;20.816;2022-12-20T14:53:45;2.10;83.00
69261;DHT22;56378;52.404;20.816;2022-12-20T14:56:18;2.10;83.20
69261;DHT22;56378;52.404;20.816;2022-12-20T14:58:44;2.00;83.30
69261;DHT22;56378;52.404;20.816;2022-12-20T15:01:23;2.00;83.10
69261;DHT22;56378;52.404;20.816;2022-12-20T15:03:53;2.00;83.20
69261;DHT22;56378;52.404;20.816;2022-12-20T15:09:02;1.90;84.20
69261;DHT22;56378;52.404;20.816;2022-12-20T15:11:30;1.90;84.10
69261;DHT22;56378;52.404;20.816;2022-12-20T15:13:56;1.90;84.10
69261;DHT22;56378;52.404;20.816;2022-12-20T15:16:29;1.80;84.50
69261;DHT22;56378;52.404;20.816;2022-12-20T15:19:00;1.80;84.70
69261;DHT22;56378;52.404;20.816;2022-12-20T15:21:42;1.80;84.80
69261;DHT22;56378;52.404;20.816;2022-12-20T15:24:18;1.80;84.70
69261;DHT22;56378;52.404;20.816;2022-12-20T15:26:46;1.80;84.50
69261;DHT22;56378;52.404;20.816;2022-12-20T15:29:17;1.80;84.40
69261;DHT22;56378;52.404;20.816;2022-12-20T15:31:43;1.80;84.40
69261;DHT22;56378;52.404;20.816;2022-12-20T15:34:35;1.80;84.30
69261;DHT22;56378;52.404;20.816;2022-12-20T15:37:01;1.80;84.50
69261;DHT22;56378;52.404;20.816;2022-12-20T15:39:28;1.80;84.50
69261;DHT22;56378;52.404;20.816;2022-12-20T15:41:54;1.80;84.40
69261;DHT22;56378;52.404;20.816;2022-12-20T15:44:26;1.70;84.50
69261;DHT22;56378;52.404;20.816;2022-12-20T15:46:52;1.70;84.80
69261;DHT22;56378;52.404;20.816;2022-12-20T15:49:23;1.70;84.60
69261;DHT22;56378;52.404;20.816;2022-12-20T15:51:50;1.70;84.90
69261;DHT22;56378;52.404;20.816;2022-12-20T15:56:56;1.70;84.90
69261;DHT22;56378;52.404;20.816;2022-12-20T15:59:22;1.70;84.80
69261;DHT22;56378;52.404;20.816;2022-12-20T16:01:47;1.80;84.60
69261;DHT22;56378;52.404;20.816;2022-12-20T16:04:18;1.80;84.50
69261;DHT22;56378;52.404;20.816;2022-12-20T16:06:45;1.80;84.50
69261;DHT22;56378;52.404;20.816;2022-12-20T16:09:11;1.80;84.50
69261;DHT22;56378;52.404;20.816;2022-12-20T16:11:37;1.80;84.60
69261;DHT22;56378;52.404;20.816;2022-12-20T16:14:04;1.70;85.00
69261;DHT22;56378;52.404;20.816;2022-12-20T16:16:33;1.70;85.30
69261;DHT22;56378;52.404;20.816;2022-12-20T16:18:59;1.70;85.20
69261;DHT22;56378;52.404;20.816;2022-12-20T16:21:34;1.70;85.30
69261;DHT22;56378;52.404;20.816;2022-12-20T16:24:01;1.70;85.50
69261;DHT22;56378;52.404;20.816;2022-12-20T16:26:27;1.70;85.70
69261;DHT22;56378;52.404;20.816;2022-12-20T16:28:54;1.70;85.60
69261;DHT22;56378;52.404;20.816;2022-12-20T16:31:35;1.80;85.30
69261;DHT22;56378;52.404;20.816;2022-12-20T16:34:03;1.80;85.30
69261;DHT22;56378;52.404;20.816;2022-12-20T16:36:30;1.80;85.00
69261;DHT22;56378;52.404;20.816;2022-12-20T16:38:55;1.90;85.10
69261;DHT22;56378;52.404;20.816;2022-12-20T16:41:26;1.90;85.20
69261;DHT22;56378;52.404;20.816;2022-12-20T16:43:53;1.90;85.10
69261;DHT22;56378;52.404;20.816;2022-12-20T16:46:21;1.90;85.30
69261;DHT22;56378;52.404;20.816;2022-12-20T16:48:47;1.90;85.50
69261;DHT22;56378;52.404;20.816;2022-12-20T16:51:31;1.90;85.60
69261;DHT22;56378;52.404;20.816;2022-12-20T16:54:02;1.90;85.80
69261;DHT22;56378;52.404;20.816;2022-12-20T16:56:28;1.80;86.30
69261;DHT22;56378;52.404;20.816;2022-12-20T16:58:55;1.80;86.60
69261;DHT22;56378;52.404;20.816;2022-12-20T17:01:34;1.80;86.60
69261;DHT22;56378;52.404;20.816;2022-12-20T17:04:00;1.80;86.80
69261;DHT22;56378;52.404;20.816;2022-12-20T17:06:27;1.80;86.70
69261;DHT22;56378;52.404;20.816;2022-12-20T17:08:53;1.80;86.80
69261;DHT22;56378;52.404;20.816;2022-12-20T17:11:23;1.80;86.90
69261;DHT22;56378;52.404;20.816;2022-12-20T17:13:51;1.80;87.50
69261;DHT22;56378;52.404;20.816;2022-12-20T17:16:17;1.80;87.90
69261;DHT22;56378;52.404;20.816;2022-12-20T17:18:48;1.80;87.90
69261;DHT22;56378;52.404;20.816;2022-12-20T17:23:46;1.80;87.70
69261;DHT22;56378;52.404;20.816;2022-12-20T17:26:20;1.80;87.80
69261;DHT22;56378;52.404;20.816;2022-12-20T17:28:51;1.80;88.00
69261;DHT22;56378;52.404;20.816;2022-12-20T17:31:25;1.80;88.10
69261;DHT22;56378;52.404;20.816;2022-12-20T17:33:51;1.80;88.00
69261;DHT22;56378;52.404;20.816;2022-12-20T17:36:18;1.80;88.20
69261;DHT22;56378;52.404;20.816;2022-12-20T17:38:44;1.80;88.60
69261;DHT22;56378;52.404;20.816;2022-12-20T17:41:30;1.80;88.40
69261;DHT22;56378;52.404;20.816;2022-12-20T17:43:59;1.80;88.10
69261;DHT22;56378;52.404;20.816;2022-12-20T17:46:25;1.80;88.20
69261;DHT22;56378;52.404;20.816;2022-12-20T17:48:51;1.80;88.00
69261;DHT22;56378;52.404;20.816;2022-12-20T17:51:25;1.80;88.00
69261;DHT22;56378;52.404;20.816;2022-12-20T17:53:56;1.80;88.00
69261;DHT22;56378;52.404;20.816;2022-12-20T17:56:31;1.80;87.80
69261;DHT22;56378;52.404;20.816;2022-12-20T17:58:58;1.90;87.70
69261;DHT22;56378;52.404;20.816;2022-12-20T18:01:28;1.90;87.70